sensor_id;sensor_type;location;lat;lon;timestamp;pressure;altitude;pressure_sealevel;temperature;humidity
55540;BME280;41384;51.418;7.286;2023-05-07T00:00:52;99882.47;;;14.32;100.00
55540;BME280;41384;51.418;7.286;2023-05-07T00:03:17;99890.22;;;14.33;100.00
55540;BME280;41384;51.418;7.286;2023-05-07T00:05:44;99882.47;;;14.32;100.00
55540;BME280;41384;51.418;7.286;2023-05-07T00:08:09;99898.28;;;14.26;100.00
55540;BME280;41384;51.418;7.286;2023-05-07T00:10:35;99888.13;;;14.23;100.00
55540;BME280;41384;51.418;7.286;2023-05-07T00:13:00;99888.03;;;14.30;100.00
55540;BME280;41384;51.418;7.286;2023-05-07T00:15:25;99899.56;;;14.24;100.00
55540;BME280;41384;51.418;7.286;2023-05-07T00:17:50;99899.91;;;14.15;100.00
55540;BME280;41384;51.418;7.286;2023-05-07T00:20:16;99892.59;;;14.11;100.00
55540;BME280;41384;51.418;7.286;2023-05-07T00:22:41;99899.44;;;14.30;100.00
55540;BME280;41384;51.418;7.286;2023-05-07T00:25:06;99905.63;;;14.00;100.00
55540;BME280;41384;51.418;7.286;2023-05-07T00:27:32;99901.81;;;14.08;100.00
55540;BME280;41384;51.418;7.286;2023-05-07T00:29:57;99901.81;;;14.08;100.00
55540;BME280;41384;51.418;7.286;2023-05-07T00:32:22;99900.44;;;14.06;100.00
55540;BME280;41384;51.418;7.286;2023-05-07T00:34:48;99900.47;;;14.18;100.00
55540;BME280;41384;51.418;7.286;2023-05-07T00:37:13;99905.22;;;14.15;100.00
55540;BME280;41384;51.418;7.286;2023-05-07T00:39:38;99898.03;;;14.16;100.00
55540;BME280;41384;51.418;7.286;2023-05-07T00:42:04;99888.38;;;14.22;100.00
55540;BME280;41384;51.418;7.286;2023-05-07T00:44:29;99887.22;;;14.18;100.00
55540;BME280;41384;51.418;7.286;2023-05-07T00:46:56;99883.84;;;14.22;100.00
55540;BME280;41384;51.418;7.286;2023-05-07T00:49:22;99891.47;;;14.19;100.00
55540;BME280;41384;51.418;7.286;2023-05-07T00:51:49;99880.50;;;14.15;100.00
55540;BME280;41384;51.418;7.286;2023-05-07T00:54:15;99890.66;;;14.18;100.00
55540;BME280;41384;51.418;7.286;2023-05-07T00:56:40;99883.06;;;14.22;100.00
55540;BME280;41384;51.418;7.286;2023-05-07T00:59:06;99882.94;;;14.28;100.00
55540;BME280;41384;51.418;7.286;2023-05-07T01:01:31;99879.16;;;14.36;100.00
55540;BME280;41384;51.418;7.286;2023-05-07T01:03:57;99871.41;;;14.35;100.00
55540;BME280;41384;51.418;7.286;2023-05-07T01:06:23;99875.78;;;14.41;100.00
55540;BME280;41384;51.418;7.286;2023-05-07T01:08:50;99872.69;;;14.32;100.00
55540;BME280;41384;51.418;7.286;2023-05-07T01:11:18;99873.84;;;14.36;100.00
55540;BME280;41384;51.418;7.286;2023-05-07T01:13:45;99870.47;;;14.29;100.00
55540;BME280;41384;51.418;7.286;2023-05-07T01:16:11;99877.88;;;14.27;100.00
55540;BME280;41384;51.418;7.286;2023-05-07T01:18:37;99871.97;;;14.25;100.00
55540;BME280;41384;51.418;7.286;2023-05-07T01:21:04;99878.66;;;14.27;100.00
55540;BME280;41384;51.418;7.286;2023-05-07T01:23:30;99870.03;;;14.32;100.00
55540;BME280;41384;51.418;7.286;2023-05-07T01:25:55;99867.25;;;14.39;100.00
55540;BME280;41384;51.418;7.286;2023-05-07T01:28:21;99871.97;;;14.37;100.00
55540;BME280;41384;51.418;7.286;2023-05-07T01:30:49;99864.00;;;14.37;100.00
55540;BME280;41384;51.418;7.286;2023-05-07T01:33:15;99879.38;;;14.47;100.00
55540;BME280;41384;51.418;7.286;2023-05-07T01:35:47;99868.88;;;14.28;100.00
55540;BME280;41384;51.418;7.286;2023-05-07T01:38:13;99875.09;;;14.34;100.00
55540;BME280;41384;51.418;7.286;2023-05-07T01:40:39;99873.59;;;14.38;100.00
55540;BME280;41384;51.418;7.286;2023-05-07T01:43:05;99868.16;;;14.33;100.00
55540;BME280;41384;51.418;7.286;2023-05-07T01:45:32;99873.69;;;14.19;100.00
55540;BME280;41384;51.418;7.286;2023-05-07T01:47:58;99867.19;;;14.03;100.00
55540;BME280;41384;51.418;7.286;2023-05-07T01:50:25;99876.19;;;13.90;100.00
55540;BME280;41384;51.418;7.286;2023-05-07T01:52:51;99879.28;;;13.87;100.00
55540;BME280;41384;51.418;7.286;2023-05-07T01:55:16;99874.47;;;14.08;100.00
55540;BME280;41384;51.418;7.286;2023-05-07T01:57:41;99875.88;;;14.22;100.00
55540;BME280;41384;51.418;7.286;2023-05-07T02:00:07;99870.13;;;14.25;100.00
55540;BME280;41384;51.418;7.286;2023-05-07T02:02:34;99863.41;;;14.11;100.00
55540;BME280;41384;51.418;7.286;2023-05-07T02:04:59;99871.31;;;13.87;100.00
55540;BME280;41384;51.418;7.286;2023-05-07T02:07:25;99869.00;;;13.91;100.00
55540;BME280;41384;51.418;7.286;2023-05-07T02:09:51;99873.91;;;14.06;100.00
55540;BME280;41384;51.418;7.286;2023-05-07T02:12:16;99878.97;;;13.95;100.00
55540;BME280;41384;51.418;7.286;2023-05-07T02:14:41;99873.75;;;13.58;100.00
55540;BME280;41384;51.418;7.286;2023-05-07T02:17:07;99882.00;;;13.50;100.00
55540;BME280;41384;51.418;7.286;2023-05-07T02:19:32;99875.38;;;13.40;100.00
55540;BME280;41384;51.418;7.286;2023-05-07T02:21:58;99870.69;;;13.42;100.00
55540;BME280;41384;51.418;7.286;2023-05-07T02:24:23;99863.91;;;13.47;100.00
55540;BME280;41384;51.418;7.286;2023-05-07T02:26:48;99863.31;;;13.45;100.00
55540;BME280;41384;51.418;7.286;2023-05-07T02:29:13;99866.19;;;13.43;100.00
55540;BME280;41384;51.418;7.286;2023-05-07T02:31:39;99865.31;;;13.31;100.00
55540;BME280;41384;51.418;7.286;2023-05-07T02:34:04;99870.63;;;13.31;100.00
55540;BME280;41384;51.418;7.286;2023-05-07T02:36:29;99864.50;;;13.30;100.00
55540;BME280;41384;51.418;7.286;2023-05-07T02:38:55;99863.44;;;13.50;100.00
55540;BME280;41384;51.418;7.286;2023-05-07T02:41:20;99857.50;;;13.66;100.00
55540;BME280;41384;51.418;7.286;2023-05-07T02:43:46;99851.22;;;13.79;100.00
55540;BME280;41384;51.418;7.286;2023-05-07T02:46:11;99860.34;;;13.83;100.00
55540;BME280;41384;51.418;7.286;2023-05-07T02:48:36;99860.72;;;13.87;100.00
55540;BME280;41384;51.418;7.286;2023-05-07T02:51:02;99870.81;;;13.78;100.00
55540;BME280;41384;51.418;7.286;2023-05-07T02:53:28;99858.34;;;13.67;100.00
55540;BME280;41384;51.418;7.286;2023-05-07T02:55:56;99860.13;;;13.54;100.00
55540;BME280;41384;51.418;7.286;2023-05-07T02:58:22;99855.50;;;13.50;100.00
55540;BME280;41384;51.418;7.286;2023-05-07T03:00:47;99854.59;;;13.56;100.00
55540;BME280;41384;51.418;7.286;2023-05-07T03:03:13;99855.94;;;13.77;100.00
55540;BME280;41384;51.418;7.286;2023-05-07T03:05:38;99853.69;;;13.62;100.00
55540;BME280;41384;51.418;7.286;2023-05-07T03:08:03;99846.78;;;13.61;100.00
55540;BME280;41384;51.418;7.286;2023-05-07T03:10:29;99854.13;;;13.47;100.00
55540;BME280;41384;51.418;7.286;2023-05-07T03:12:55;99853.28;;;13.47;100.00
55540;BME280;41384;51.418;7.286;2023-05-07T03:15:20;99854.31;;;13.46;100.00
55540;BME280;41384;51.418;7.286;2023-05-07T03:17:46;99860.78;;;13.50;100.00
55540;BME280;41384;51.418;7.286;2023-05-07T03:20:12;99864.94;;;13.46;100.00
55540;BME280;41384;51.418;7.286;2023-05-07T03:22:38;99872.44;;;13.49;100.00
55540;BME280;41384;51.418;7.286;2023-05-07T03:25:03;99863.78;;;13.72;100.00
55540;BME280;41384;51.418;7.286;2023-05-07T03:27:29;99855.56;;;13.62;100.00
55540;BME280;41384;51.418;7.286;2023-05-07T03:29:54;99858.53;;;13.53;100.00
55540;BME280;41384;51.418;7.286;2023-05-07T03:32:20;99857.69;;;13.53;100.00
55540;BME280;41384;51.418;7.286;2023-05-07T03:34:45;99864.88;;;13.64;100.00
55540;BME280;41384;51.418;7.286;2023-05-07T03:37:10;99874.50;;;13.47;100.00
55540;BME280;41384;51.418;7.286;2023-05-07T03:39:35;99868.31;;;13.34;100.00
55540;BME280;41384;51.418;7.286;2023-05-07T03:42:01;99870.47;;;13.44;100.00
55540;BME280;41384;51.418;7.286;2023-05-07T03:44:26;99855.94;;;13.47;100.00
55540;BME280;41384;51.418;7.286;2023-05-07T03:46:51;99865.22;;;13.37;100.00
55540;BME280;41384;51.418;7.286;2023-05-07T03:49:16;99867.41;;;13.40;100.00
55540;BME280;41384;51.418;7.286;2023-05-07T03:51:42;99862.34;;;13.39;100.00
55540;BME280;41384;51.418;7.286;2023-05-07T03:54:07;99861.69;;;13.43;100.00
55540;BME280;41384;51.418;7.286;2023-05-07T03:56:33;99867.13;;;13.49;100.00
55540;BME280;41384;51.418;7.286;2023-05-07T03:58:58;99871.78;;;13.35;100.00
55540;BME280;41384;51.418;7.286;2023-05-07T04:01:23;99867.00;;;13.43;100.00
55540;BME280;41384;51.418;7.286;2023-05-07T04:03:48;99865.22;;;13.37;100.00
55540;BME280;41384;51.418;7.286;2023-05-07T04:06:16;99869.66;;;13.43;100.00
55540;BME280;41384;51.418;7.286;2023-05-07T04:08:42;99869.56;;;13.50;100.00
55540;BME280;41384;51.418;7.286;2023-05-07T04:11:07;99868.09;;;13.54;100.00
55540;BME280;41384;51.418;7.286;2023-05-07T04:13:32;99876.97;;;13.60;100.00
55540;BME280;41384;51.418;7.286;2023-05-07T04:15:58;99877.09;;;13.65;100.00
55540;BME280;41384;51.418;7.286;2023-05-07T04:18:23;99870.50;;;13.56;100.00
55540;BME280;41384;51.418;7.286;2023-05-07T04:20:49;99871.22;;;13.63;100.00
55540;BME280;41384;51.418;7.286;2023-05-07T04:23:15;99873.75;;;13.58;100.00
55540;BME280;41384;51.418;7.286;2023-05-07T04:25:40;99878.56;;;13.80;100.00
55540;BME280;41384;51.418;7.286;2023-05-07T04:28:06;99882.72;;;13.76;100.00
55540;BME280;41384;51.418;7.286;2023-05-07T04:30:32;99882.78;;;13.69;100.00
55540;BME280;41384;51.418;7.286;2023-05-07T04:32:57;99882.22;;;13.67;100.00
55540;BME280;41384;51.418;7.286;2023-05-07T04:35:22;99883.59;;;13.69;100.00
55540;BME280;41384;51.418;7.286;2023-05-07T04:37:48;99886.06;;;13.83;100.00
55540;BME280;41384;51.418;7.286;2023-05-07T04:40:13;99882.84;;;13.81;100.00
55540;BME280;41384;51.418;7.286;2023-05-07T04:42:38;99890.63;;;13.64;100.00
55540;BME280;41384;51.418;7.286;2023-05-07T04:45:04;99886.97;;;13.77;100.00
55540;BME280;41384;51.418;7.286;2023-05-07T04:47:30;99882.03;;;13.80;100.00
55540;BME280;41384;51.418;7.286;2023-05-07T04:49:55;99886.66;;;13.85;100.00
55540;BME280;41384;51.418;7.286;2023-05-07T04:52:20;99890.38;;;13.96;100.00
55540;BME280;41384;51.418;7.286;2023-05-07T04:54:46;99890.50;;;14.01;100.00
55540;BME280;41384;51.418;7.286;2023-05-07T04:57:11;99889.91;;;13.99;100.00
55540;BME280;41384;51.418;7.286;2023-05-07T04:59:36;99889.81;;;14.06;100.00
55540;BME280;41384;51.418;7.286;2023-05-07T05:02:02;99882.44;;;14.08;100.00
55540;BME280;41384;51.418;7.286;2023-05-07T05:04:29;99885.44;;;14.11;100.00
55540;BME280;41384;51.418;7.286;2023-05-07T05:06:54;99888.78;;;14.07;100.00
55540;BME280;41384;51.418;7.286;2023-05-07T05:09:19;99894.56;;;14.04;100.00
55540;BME280;41384;51.418;7.286;2023-05-07T05:11:45;99899.41;;;14.07;100.00
55540;BME280;41384;51.418;7.286;2023-05-07T05:14:10;99903.09;;;14.06;100.00
55540;BME280;41384;51.418;7.286;2023-05-07T05:16:35;99903.44;;;14.09;100.00
55540;BME280;41384;51.418;7.286;2023-05-07T05:19:01;99902.63;;;14.09;100.00
55540;BME280;41384;51.418;7.286;2023-05-07T05:21:27;99904.28;;;14.22;100.00
55540;BME280;41384;51.418;7.286;2023-05-07T05:23:52;99899.78;;;14.22;100.00
55540;BME280;41384;51.418;7.286;2023-05-07T05:26:17;99906.94;;;14.22;100.00
55540;BME280;41384;51.418;7.286;2023-05-07T05:28:43;99902.00;;;14.37;100.00
55540;BME280;41384;51.418;7.286;2023-05-07T05:31:08;99907.19;;;14.44;100.00
55540;BME280;41384;51.418;7.286;2023-05-07T05:33:34;99903.16;;;14.41;100.00
55540;BME280;41384;51.418;7.286;2023-05-07T05:35:59;99907.53;;;14.36;100.00
55540;BME280;41384;51.418;7.286;2023-05-07T05:38:24;99901.41;;;14.47;100.00
55540;BME280;41384;51.418;7.286;2023-05-07T05:40:50;99898.88;;;14.52;100.00
55540;BME280;41384;51.418;7.286;2023-05-07T05:43:16;99907.66;;;14.53;100.00
55540;BME280;41384;51.418;7.286;2023-05-07T05:45:41;99900.03;;;14.56;100.00
55540;BME280;41384;51.418;7.286;2023-05-07T05:48:06;99908.72;;;14.64;100.00
55540;BME280;41384;51.418;7.286;2023-05-07T05:50:33;99903.06;;;14.60;100.00
55540;BME280;41384;51.418;7.286;2023-05-07T05:53:00;99904.91;;;14.59;100.00
55540;BME280;41384;51.418;7.286;2023-05-07T05:55:26;99898.69;;;14.66;100.00
55540;BME280;41384;51.418;7.286;2023-05-07T05:57:52;99899.97;;;14.75;100.00
55540;BME280;41384;51.418;7.286;2023-05-07T06:00:17;99907.59;;;14.83;100.00
55540;BME280;41384;51.418;7.286;2023-05-07T06:02:42;99910.13;;;14.90;100.00
55540;BME280;41384;51.418;7.286;2023-05-07T06:05:08;99912.31;;;14.93;100.00
55540;BME280;41384;51.418;7.286;2023-05-07T06:07:34;99911.84;;;14.96;100.00
55540;BME280;41384;51.418;7.286;2023-05-07T06:10:00;99913.59;;;15.02;100.00
55540;BME280;41384;51.418;7.286;2023-05-07T06:12:25;99909.44;;;15.07;100.00
55540;BME280;41384;51.418;7.286;2023-05-07T06:14:51;99923.28;;;15.09;100.00
55540;BME280;41384;51.418;7.286;2023-05-07T06:17:16;99926.38;;;15.17;100.00
55540;BME280;41384;51.418;7.286;2023-05-07T06:19:41;99919.44;;;15.16;100.00
55540;BME280;41384;51.418;7.286;2023-05-07T06:22:07;99924.56;;;15.18;100.00
55540;BME280;41384;51.418;7.286;2023-05-07T06:24:32;99927.31;;;15.23;100.00
55540;BME280;41384;51.418;7.286;2023-05-07T06:26:57;99926.84;;;15.26;100.00
55540;BME280;41384;51.418;7.286;2023-05-07T06:29:24;99930.28;;;15.27;100.00
55540;BME280;41384;51.418;7.286;2023-05-07T06:31:53;99936.81;;;15.19;100.00
55540;BME280;41384;51.418;7.286;2023-05-07T06:34:19;99935.88;;;15.25;100.00
55540;BME280;41384;51.418;7.286;2023-05-07T06:36:44;99929.94;;;15.35;100.00
55540;BME280;41384;51.418;7.286;2023-05-07T06:39:10;99928.00;;;15.30;100.00
55540;BME280;41384;51.418;7.286;2023-05-07T06:41:35;99931.06;;;15.39;100.00
55540;BME280;41384;51.418;7.286;2023-05-07T06:44:02;99938.84;;;15.41;100.00
55540;BME280;41384;51.418;7.286;2023-05-07T06:46:28;99944.25;;;15.46;100.00
55540;BME280;41384;51.418;7.286;2023-05-07T06:48:53;99948.75;;;15.45;100.00
55540;BME280;41384;51.418;7.286;2023-05-07T06:51:18;99943.09;;;15.54;100.00
55540;BME280;41384;51.418;7.286;2023-05-07T06:53:44;99947.69;;;15.58;100.00
55540;BME280;41384;51.418;7.286;2023-05-07T06:56:09;99942.94;;;15.60;100.00
55540;BME280;41384;51.418;7.286;2023-05-07T06:58:34;99949.66;;;15.63;100.00
55540;BME280;41384;51.418;7.286;2023-05-07T07:01:00;99945.94;;;15.64;100.00
55540;BME280;41384;51.418;7.286;2023-05-07T07:03:25;99938.06;;;15.69;100.00
55540;BME280;41384;51.418;7.286;2023-05-07T07:05:54;99935.97;;;15.71;100.00
55540;BME280;41384;51.418;7.286;2023-05-07T07:08:20;99937.91;;;15.76;100.00
55540;BME280;41384;51.418;7.286;2023-05-07T07:10:46;99934.19;;;15.77;100.00
55540;BME280;41384;51.418;7.286;2023-05-07T07:13:12;99935.13;;;15.83;100.00
55540;BME280;41384;51.418;7.286;2023-05-07T07:15:37;99931.75;;;15.87;100.00
55540;BME280;41384;51.418;7.286;2023-05-07T07:18:04;99935.56;;;15.92;100.00
55540;BME280;41384;51.418;7.286;2023-05-07T07:20:29;99934.06;;;15.96;100.00
55540;BME280;41384;51.418;7.286;2023-05-07T07:22:54;99930.66;;;16.00;100.00
55540;BME280;41384;51.418;7.286;2023-05-07T07:25:20;99924.28;;;16.01;100.00
55540;BME280;41384;51.418;7.286;2023-05-07T07:27:45;99937.28;;;15.98;100.00
55540;BME280;41384;51.418;7.286;2023-05-07T07:30:10;99930.44;;;16.02;100.00
55540;BME280;41384;51.418;7.286;2023-05-07T07:32:36;99930.75;;;16.05;100.00
55540;BME280;41384;51.418;7.286;2023-05-07T07:35:01;99935.03;;;16.07;100.00
55540;BME280;41384;51.418;7.286;2023-05-07T07:37:27;99935.59;;;16.09;100.00
55540;BME280;41384;51.418;7.286;2023-05-07T07:39:52;99937.22;;;16.10;100.00
55540;BME280;41384;51.418;7.286;2023-05-07T07:42:17;99935.94;;;16.12;100.00
55540;BME280;41384;51.418;7.286;2023-05-07T07:44:43;99941.56;;;16.16;100.00
55540;BME280;41384;51.418;7.286;2023-05-07T07:47:08;99932.88;;;16.21;100.00
55540;BME280;41384;51.418;7.286;2023-05-07T07:49:34;99935.38;;;16.27;100.00
55540;BME280;41384;51.418;7.286;2023-05-07T07:52:00;99938.50;;;16.24;100.00
55540;BME280;41384;51.418;7.286;2023-05-07T07:54:25;99934.88;;;16.30;100.00
55540;BME280;41384;51.418;7.286;2023-05-07T07:56:51;99938.69;;;16.34;100.00
55540;BME280;41384;51.418;7.286;2023-05-07T07:59:17;99948.06;;;16.37;100.00
55540;BME280;41384;51.418;7.286;2023-05-07T08:01:44;99949.44;;;16.40;100.00
55540;BME280;41384;51.418;7.286;2023-05-07T08:04:09;99953.25;;;16.44;100.00
55540;BME280;41384;51.418;7.286;2023-05-07T08:06:35;99954.84;;;16.45;100.00
55540;BME280;41384;51.418;7.286;2023-05-07T08:12:22;99963.22;;;16.54;100.00
55540;BME280;41384;51.418;7.286;2023-05-07T08:14:47;99966.72;;;16.54;100.00
55540;BME280;41384;51.418;7.286;2023-05-07T08:17:13;99964.63;;;16.56;100.00
55540;BME280;41384;51.418;7.286;2023-05-07T08:19:41;99967.59;;;16.60;100.00
55540;BME280;41384;51.418;7.286;2023-05-07T08:22:06;99968.00;;;16.69;100.00
55540;BME280;41384;51.418;7.286;2023-05-07T08:24:31;99965.41;;;16.74;100.00
55540;BME280;41384;51.418;7.286;2023-05-07T08:26:57;99970.50;;;16.75;100.00
55540;BME280;41384;51.418;7.286;2023-05-07T08:29:22;99968.97;;;16.80;100.00
55540;BME280;41384;51.418;7.286;2023-05-07T08:31:47;99969.28;;;16.83;100.00
55540;BME280;41384;51.418;7.286;2023-05-07T08:34:12;99969.34;;;16.88;100.00
55540;BME280;41384;51.418;7.286;2023-05-07T08:36:38;99963.59;;;16.97;100.00
55540;BME280;41384;51.418;7.286;2023-05-07T08:39:03;99962.09;;;17.01;100.00
55540;BME280;41384;51.418;7.286;2023-05-07T08:41:29;99962.16;;;17.06;100.00
55540;BME280;41384;51.418;7.286;2023-05-07T08:43:56;99963.84;;;17.12;100.00
55540;BME280;41384;51.418;7.286;2023-05-07T08:46:24;99961.31;;;17.23;100.00
55540;BME280;41384;51.418;7.286;2023-05-07T08:48:51;99959.78;;;17.27;100.00
55540;BME280;41384;51.418;7.286;2023-05-07T08:51:19;99963.03;;;17.29;100.00
55540;BME280;41384;51.418;7.286;2023-05-07T08:53:46;99963.81;;;17.29;100.00
55540;BME280;41384;51.418;7.286;2023-05-07T08:56:14;99966.53;;;17.34;100.00
55540;BME280;41384;51.418;7.286;2023-05-07T08:58:41;99966.59;;;17.40;100.00
55540;BME280;41384;51.418;7.286;2023-05-07T09:01:13;99971.22;;;17.44;100.00
55540;BME280;41384;51.418;7.286;2023-05-07T09:03:39;99961.72;;;17.54;100.00
55540;BME280;41384;51.418;7.286;2023-05-07T09:06:04;99966.00;;;17.55;100.00
55540;BME280;41384;51.418;7.286;2023-05-07T09:08:32;99957.56;;;17.63;100.00
55540;BME280;41384;51.418;7.286;2023-05-07T09:10:57;99965.66;;;17.73;100.00
55540;BME280;41384;51.418;7.286;2023-05-07T09:13:23;99963.31;;;17.77;100.00
55540;BME280;41384;51.418;7.286;2023-05-07T09:15:48;99962.50;;;17.76;100.00
55540;BME280;41384;51.418;7.286;2023-05-07T09:18:14;99962.31;;;17.83;100.00
55540;BME280;41384;51.418;7.286;2023-05-07T09:20:40;99961.59;;;17.93;100.00
55540;BME280;41384;51.418;7.286;2023-05-07T09:23:07;99962.28;;;18.05;100.00
55540;BME280;41384;51.418;7.286;2023-05-07T09:25:34;99954.31;;;18.11;100.00
55540;BME280;41384;51.418;7.286;2023-05-07T09:28:00;99959.22;;;18.19;98.34
55540;BME280;41384;51.418;7.286;2023-05-07T09:30:30;99955.28;;;18.27;100.00
55540;BME280;41384;51.418;7.286;2023-05-07T09:32:56;99954.16;;;18.22;94.91
55540;BME280;41384;51.418;7.286;2023-05-07T09:35:22;99955.75;;;18.18;94.83
55540;BME280;41384;51.418;7.286;2023-05-07T09:37:55;99950.72;;;18.22;96.02
55540;BME280;41384;51.418;7.286;2023-05-07T09:40:21;99955.53;;;18.25;94.10
55540;BME280;41384;51.418;7.286;2023-05-07T09:42:48;99955.00;;;18.23;91.22
55540;BME280;41384;51.418;7.286;2023-05-07T09:45:14;99954.00;;;18.34;92.69
55540;BME280;41384;51.418;7.286;2023-05-07T09:47:42;99953.00;;;18.41;91.81
55540;BME280;41384;51.418;7.286;2023-05-07T09:50:10;99956.03;;;18.55;92.26
55540;BME280;41384;51.418;7.286;2023-05-07T09:52:38;99963.31;;;18.64;93.79
55540;BME280;41384;51.418;7.286;2023-05-07T09:55:05;99964.78;;;18.83;94.32
55540;BME280;41384;51.418;7.286;2023-05-07T09:57:32;99955.47;;;18.90;91.59
55540;BME280;41384;51.418;7.286;2023-05-07T09:59:58;99956.06;;;18.98;91.00
55540;BME280;41384;51.418;7.286;2023-05-07T10:02:25;99951.91;;;19.17;89.79
55540;BME280;41384;51.418;7.286;2023-05-07T10:04:54;99957.81;;;19.19;90.18
55540;BME280;41384;51.418;7.286;2023-05-07T10:07:20;99967.66;;;19.08;87.50
55540;BME280;41384;51.418;7.286;2023-05-07T10:09:46;99971.31;;;18.97;88.36
55540;BME280;41384;51.418;7.286;2023-05-07T10:12:11;99964.84;;;18.93;89.88
55540;BME280;41384;51.418;7.286;2023-05-07T10:14:37;99959.19;;;18.89;89.55
55540;BME280;41384;51.418;7.286;2023-05-07T10:17:03;99961.91;;;18.94;90.84
55540;BME280;41384;51.418;7.286;2023-05-07T10:19:29;99956.00;;;18.92;92.23
55540;BME280;41384;51.418;7.286;2023-05-07T10:21:56;99958.97;;;18.91;90.57
55540;BME280;41384;51.418;7.286;2023-05-07T10:24:32;99956.50;;;18.84;91.11
55540;BME280;41384;51.418;7.286;2023-05-07T10:27:00;99958.09;;;18.85;91.49
55540;BME280;41384;51.418;7.286;2023-05-07T10:34:54;99957.88;;;18.87;90.20
55540;BME280;41384;51.418;7.286;2023-05-07T10:37:21;99956.50;;;18.84;91.52
55540;BME280;41384;51.418;7.286;2023-05-07T10:39:47;99954.66;;;18.85;90.56
55540;BME280;41384;51.418;7.286;2023-05-07T10:42:14;99960.22;;;18.83;92.13
55540;BME280;41384;51.418;7.286;2023-05-07T10:44:39;99961.84;;;18.84;91.48
55540;BME280;41384;51.418;7.286;2023-05-07T10:47:05;99972.53;;;18.84;90.86
55540;BME280;41384;51.418;7.286;2023-05-07T10:49:31;99969.06;;;18.84;90.51
55540;BME280;41384;51.418;7.286;2023-05-07T10:52:16;99958.38;;;18.84;89.26
55540;BME280;41384;51.418;7.286;2023-05-07T10:54:43;99957.00;;;18.81;89.24
55540;BME280;41384;51.418;7.286;2023-05-07T10:57:36;99954.84;;;18.78;89.02
55540;BME280;41384;51.418;7.286;2023-05-07T11:00:03;99956.22;;;18.80;89.07
55540;BME280;41384;51.418;7.286;2023-05-07T11:05:31;99958.06;;;18.80;87.35
55540;BME280;41384;51.418;7.286;2023-05-07T11:07:58;99966.66;;;18.82;87.62
55540;BME280;41384;51.418;7.286;2023-05-07T11:10:51;99961.06;;;18.84;86.28
55540;BME280;41384;51.418;7.286;2023-05-07T11:13:18;99956.50;;;18.84;87.72
55540;BME280;41384;51.418;7.286;2023-05-07T11:15:47;99955.44;;;18.85;83.04
55540;BME280;41384;51.418;7.286;2023-05-07T11:18:17;99950.06;;;18.80;85.33
55540;BME280;41384;51.418;7.286;2023-05-07T11:20:58;99956.78;;;18.83;86.09
55540;BME280;41384;51.418;7.286;2023-05-07T11:26:04;99960.19;;;18.78;85.08
55540;BME280;41384;51.418;7.286;2023-05-07T11:28:30;99959.97;;;18.79;82.53
55540;BME280;41384;51.418;7.286;2023-05-07T11:30:56;99962.09;;;18.77;82.14
55540;BME280;41384;51.418;7.286;2023-05-07T11:33:23;99963.41;;;18.75;84.28
55540;BME280;41384;51.418;7.286;2023-05-07T11:35:51;99958.91;;;18.80;82.25
55540;BME280;41384;51.418;7.286;2023-05-07T11:38:18;99960.72;;;18.75;83.63
55540;BME280;41384;51.418;7.286;2023-05-07T11:40:54;99956.16;;;18.70;83.60
55540;BME280;41384;51.418;7.286;2023-05-07T11:43:20;99955.63;;;18.68;82.10
55540;BME280;41384;51.418;7.286;2023-05-07T11:45:46;99956.13;;;18.65;84.55
55540;BME280;41384;51.418;7.286;2023-05-07T11:48:13;99961.72;;;18.63;81.21
55540;BME280;41384;51.418;7.286;2023-05-07T11:53:17;99957.91;;;18.54;82.59
55540;BME280;41384;51.418;7.286;2023-05-07T11:55:44;99964.84;;;18.55;81.88
55540;BME280;41384;51.418;7.286;2023-05-07T11:58:11;99964.84;;;18.55;83.66
55540;BME280;41384;51.418;7.286;2023-05-07T12:00:37;99957.16;;;18.59;82.90
55540;BME280;41384;51.418;7.286;2023-05-07T12:03:04;99961.97;;;18.62;85.62
55540;BME280;41384;51.418;7.286;2023-05-07T12:05:29;99959.91;;;18.69;85.87
55540;BME280;41384;51.418;7.286;2023-05-07T12:07:58;99959.16;;;18.84;86.63
55540;BME280;41384;51.418;7.286;2023-05-07T12:10:23;99955.63;;;19.11;84.66
55540;BME280;41384;51.418;7.286;2023-05-07T12:12:50;99954.91;;;19.31;83.38
55540;BME280;41384;51.418;7.286;2023-05-07T12:15:22;99950.63;;;19.35;82.46
55540;BME280;41384;51.418;7.286;2023-05-07T12:17:47;99957.66;;;19.47;84.28
55540;BME280;41384;51.418;7.286;2023-05-07T12:20:13;99953.66;;;19.49;83.15
55540;BME280;41384;51.418;7.286;2023-05-07T12:22:40;99948.81;;;19.41;82.20
55540;BME280;41384;51.418;7.286;2023-05-07T12:25:06;99966.19;;;19.38;82.75
55540;BME280;41384;51.418;7.286;2023-05-07T12:27:31;99963.72;;;19.27;81.65
55540;BME280;41384;51.418;7.286;2023-05-07T12:29:57;99961.81;;;19.22;81.83
55540;BME280;41384;51.418;7.286;2023-05-07T12:32:24;99964.78;;;19.20;80.30
55540;BME280;41384;51.418;7.286;2023-05-07T12:34:50;99971.69;;;19.11;83.50
55540;BME280;41384;51.418;7.286;2023-05-07T12:37:15;99975.63;;;19.03;83.59
55540;BME280;41384;51.418;7.286;2023-05-07T12:39:47;99973.66;;;18.93;81.98
55540;BME280;41384;51.418;7.286;2023-05-07T12:42:15;99969.88;;;18.84;83.15
55540;BME280;41384;51.418;7.286;2023-05-07T12:44:41;99970.66;;;18.79;84.92
55540;BME280;41384;51.418;7.286;2023-05-07T12:47:10;99974.94;;;18.80;85.41
55540;BME280;41384;51.418;7.286;2023-05-07T12:49:35;99981.94;;;18.87;84.94
55540;BME280;41384;51.418;7.286;2023-05-07T12:52:04;99981.66;;;18.88;82.17
55540;BME280;41384;51.418;7.286;2023-05-07T12:54:35;99982.47;;;18.89;83.29
55540;BME280;41384;51.418;7.286;2023-05-07T12:57:06;99984.88;;;18.90;83.26
55540;BME280;41384;51.418;7.286;2023-05-07T12:59:36;99983.03;;;18.91;82.87
55540;BME280;41384;51.418;7.286;2023-05-07T13:02:02;99989.16;;;18.91;82.45
55540;BME280;41384;51.418;7.286;2023-05-07T13:04:28;99997.47;;;18.90;83.61